Latest Coastal Weather Observations for Cape Willoughby

IDS60701

Issued at 3:35 pm CST Wednesday 23 July 2014 (issued every 10 minutes, with the page automatically refreshed every 10 minutes)

About coastal observations | Map of coastal stations | Coastal observations for SA | Marine services | Other Formats
Station Details ID: 022803 Name: CAPE WILLOUGHBY Lat: -35.84 Lon: 138.13 Height: 55.0 m
Data from the previous 72 hours. | See also: Recent months at Cape Willoughby
Date/Time
CST
Temp

°C
Wind Pressure Rain
since 9am
mm
Weather Cloud Vis
km
Sea
Height
m
Swell
Dir
 
Speed
knots
Gust
knots
hPa Trend Height
m
Period
s
Dir
23/03:30pm 11.9 E 17 21 1011.5 - 1.4 - - - - - - -
23/03:00pm 12.3 E 16 19 1011.7 - 1.4 Recent precip. - - - - - -
23/02:30pm 12.2 E 13 15 1011.9 - 1.0 - - - - - - -
23/02:00pm 11.9 N 16 19 1013.0 - 0.6 - - - - - - -
23/01:30pm 12.1 N 23 26 1013.3 - 0.0 - - - - - - -
23/01:00pm 13.2 NNW 18 22 1014.3 - 0.0 - - - - - - -
23/12:30pm 14.0 N 16 22 1014.4 - 0.0 - - - - - - -
23/12:00pm 13.6 N 19 23 1015.3 - 0.0 - - - - - - -
23/11:30am 13.2 NNE 11 13 1016.2 - 0.0 - - - - - - -
23/11:00am 12.9 NNE 12 14 1016.3 - 0.0 - - - - - - -
23/10:30am 12.7 ENE 10 12 1016.8 - 0.0 - - - - - - -
23/10:00am 12.2 ENE 12 14 1016.9 - 0.0 - - - - - - -
23/09:30am 12.2 ENE 12 14 1017.4 - 0.0 - - - - - - -
23/09:00am 11.9 NE 8 12 1017.4 - 0.0 - - - - - - -
23/08:30am 11.4 NE 10 12 1017.4 - 0.0 - - - - - - -
23/08:00am 11.5 NE 12 15 1017.3 - 0.0 - - - - - - -
23/07:30am 11.3 ENE 14 16 1017.5 - 0.0 - - - - - - -
23/07:00am 11.4 NE 14 17 1017.4 - 0.0 - - - - - - -
23/06:30am 11.6 NE 13 17 1017.6 - 0.0 - - - - - - -
23/06:00am 11.7 ENE 13 16 1017.6 - 0.0 - - - - - - -
23/05:30am 11.9 ENE 11 14 1017.7 - 0.0 - - - - - - -
23/05:00am 11.9 ENE 11 13 1017.6 - 0.0 - - - - - - -
23/04:30am 12.0 NE 12 15 1018.0 - 0.0 - - - - - - -
23/04:00am 12.0 NE 13 15 1018.1 - 0.0 - - - - - - -
23/03:30am 12.2 NE 10 13 1018.5 - 0.0 - - - - - - -
23/03:00am 12.3 ENE 11 13 1018.7 - 0.0 - - - - - - -
23/02:30am 12.4 NE 11 14 1019.0 - 0.0 - - - - - - -
23/02:00am 12.3 ENE 13 15 1019.2 - 0.0 - - - - - - -
23/01:30am 12.7 ENE 12 15 1019.2 - 0.0 - - - - - - -
23/01:00am 12.8 ENE 13 15 1019.3 - 0.0 - - - - - - -
23/12:30am 12.9 ENE 12 15 1019.6 - 0.0 - - - - - - -
23/12:00am 13.0 NE 12 15 1020.0 - 0.0 - - - - - - -
 
Date/Time
CST
Temp

°C
Wind Pressure Rain
since 9am
mm
Weather Cloud Vis
km
Sea
Height
m
Swell
Dir
 
Speed
knots
Gust
knots
hPa Trend Height
m
Period
s
Dir
22/11:30pm 13.1 NE 12 14 1020.3 - 0.0 - - - - - - -
22/11:00pm 12.9 NE 12 14 1020.6 - 0.0 - - - - - - -
22/10:30pm 13.1 NE 12 15 1020.5 - 0.0 - - - - - - -
22/10:00pm 12.9 NE 11 14 1020.7 - 0.0 - - - - - - -
22/09:30pm 13.0 ENE 11 14 1021.0 - 0.0 - - - - - - -
22/09:00pm 13.3 ENE 10 13 1021.3 - 0.0 - - - - - - -
22/08:30pm 13.3 ENE 11 13 1021.0 - 0.0 - - - - - - -
22/08:00pm 13.4 ENE 9 12 1021.3 - 0.0 - - - - - - -
22/07:30pm 13.4 ENE 8 10 1021.4 - 0.0 - - - - - - -
22/07:00pm 13.3 ENE 6 8 1021.6 - 0.0 - - - - - - -
22/06:30pm 13.1 ENE 6 8 1021.4 - 0.0 - - - - - - -
22/06:00pm 12.9 ENE 6 7 1021.5 - 0.0 - - - - - - -
22/05:30pm 12.6 ENE 5 7 1021.6 - 0.0 - - - - - - -
22/05:00pm 12.6 ENE 6 7 1021.0 - 0.0 - - - - - - -
22/04:30pm 13.0 E 6 7 1020.9 - 0.0 - - - - - - -
22/04:00pm 13.5 E 5 7 1021.2 - 0.0 - - - - - - -
22/03:30pm 14.0 ENE 4 5 1021.4 - 0.0 - - - - - - -
22/03:00pm 13.9 ENE 3 4 1021.5 - 0.0 - - - - - - -
22/02:30pm 14.1 ENE 3 3 1021.5 - 0.0 - - - - - - -
22/02:00pm 13.9 NE 3 4 1021.7 - 0.0 - - - - - - -
22/01:30pm 14.1 NNE 4 4 1022.0 - 0.0 - - - - - - -
22/01:00pm 14.0 NNE 4 5 1022.3 - 0.0 - - - - - - -
22/12:30pm 14.1 NE 4 5 1022.6 - 0.0 - - - - - - -
22/12:00pm 14.2 ENE 4 5 1023.1 - 0.0 - - - - - - -
22/11:30am 14.3 ENE 5 6 1023.6 - 0.0 - - - - - - -
22/11:00am 14.4 ENE 4 6 1023.8 - 0.0 - - - - - - -
22/10:30am 14.4 ENE 4 4 1024.1 - 0.0 - - - - - - -
22/10:00am 14.4 ENE 4 5 1024.2 - 0.0 - - - - - - -
22/09:30am 14.3 N 2 3 1024.2 - 0.0 - - - - - - -
22/09:00am 13.6 N 2 3 1024.1 - 0.0 - - - - - - -
22/08:30am 12.7 N 3 4 1024.0 - 0.0 - - - - - - -
22/08:00am 11.5 N 4 4 1023.7 - 0.0 - - - - - - -
22/07:30am 11.3 N 3 5 1023.6 - 0.0 - - - - - - -
22/07:00am 10.8 N 3 5 1023.4 - 0.0 - - - - - - -
22/06:30am 11.3 NNW 4 4 1023.2 - 0.0 - - - - - - -
22/06:00am 11.5 N 3 3 1022.9 - 0.0 - - - - - - -
22/05:30am 11.3 N 4 4 1022.7 - 0.0 - - - - - - -
22/05:00am 12.0 NNE 3 4 1022.7 - 0.0 - - - - - - -
22/04:30am 12.1 NNE 2 2 1022.7 - 0.0 - - - - - - -
22/04:00am 11.9 NNE 2 3 1022.7 - 0.0 - - - - - - -
22/03:30am 12.0 NNE 5 5 1022.6 - 0.0 - - - - - - -
22/03:00am 12.1 NNE 4 6 1022.7 - 0.0 - - - - - - -
22/02:30am 12.0 NNE 6 7 1022.6 - 0.0 - - - - - - -
22/02:00am 11.8 NNE 6 7 1022.6 - 0.0 - - - - - - -
22/01:30am 11.8 NE 4 5 1022.6 - 0.0 - - - - - - -
22/01:00am 11.9 N 3 3 1022.6 - 0.0 - - - - - - -
22/12:30am 11.7 N 2 3 1022.8 - 0.0 - - - - - - -
22/12:00am 11.3 N 4 5 1022.9 - 0.0 - - - - - - -
 
Date/Time
CST
Temp

°C
Wind Pressure Rain
since 9am
mm
Weather Cloud Vis
km
Sea
Height
m
Swell
Dir
 
Speed
knots
Gust
knots
hPa Trend Height
m
Period
s
Dir
21/11:30pm 11.3 N 4 5 1022.9 - 0.0 - - - - - - -
21/11:00pm 11.4 N 3 3 1022.9 - 0.0 - - - - - - -
21/10:30pm 11.4 N 4 4 1022.9 - 0.0 - - - - - - -
21/10:00pm 11.5 N 4 4 1022.9 - 0.0 - - - - - - -
21/09:30pm 11.1 N 5 6 1022.9 - 0.0 - - - - - - -
21/09:00pm 11.1 N 4 6 1022.8 - 0.0 - - - - - - -
21/08:30pm 10.8 N 5 6 1022.6 - 0.0 - - - - - - -
21/08:00pm 11.2 N 6 8 1022.4 - 0.0 - - - - - - -
21/07:30pm 12.3 N 8 9 1022.2 - 0.0 - - - - - - -
21/07:00pm 12.2 NNE 8 9 1022.0 - 0.0 - - - - - - -
21/06:30pm 11.9 NNE 6 7 1021.8 - 0.0 - - - - - - -
21/06:00pm 12.2 NNE 5 5 1021.6 - 0.0 - - - - - - -
21/05:30pm 12.3 NNE 5 6 1021.5 - 0.0 - - - - - - -
21/05:00pm 12.6 NE 5 6 1021.3 - 0.0 - - - - - - -
21/04:30pm 12.7 NE 5 6 1021.3 - 0.0 - - - - - - -
21/04:00pm 12.8 NE 5 7 1021.0 - 0.0 - - - - - - -
21/03:30pm 13.6 NE 5 7 1020.8 - 0.0 - - - - - - -
21/03:00pm 13.4 NE 6 8 1020.4 - 0.0 - - - - - - -
21/02:30pm 13.7 N 12 14 1020.3 - 0.0 - - - - - - -
21/02:00pm 14.2 N 11 14 1020.4 - 0.0 - - - - - - -
21/01:30pm 13.9 N 12 14 1020.6 - 0.0 - - - - - - -
21/01:00pm 14.4 N 14 17 1021.0 - 0.0 - - - - - - -
21/12:30pm 14.5 N 14 17 1021.4 - 0.0 - - - - - - -
21/12:00pm 13.7 N 16 19 1021.6 - 0.0 - - - - - - -
21/11:30am 13.3 N 17 19 1022.0 - 0.0 - - - - - - -
21/11:00am 13.1 N 16 18 1022.2 - 0.0 - - - - - - -
21/10:30am 12.5 N 16 20 1022.4 - 0.0 - - - - - - -
21/10:00am 12.9 N 9 11 1022.7 - 0.0 - - - - - - -
21/09:30am 11.8 N 8 10 1022.7 - 0.0 - - - - - - -
21/09:00am 11.8 N 9 11 1022.5 - 0.0 - - - - - - -
21/08:30am 11.6 N 8 11 1022.5 - 0.0 - - - - - - -
21/08:00am 11.4 N 11 14 1022.3 - 0.0 - - - - - - -
21/07:30am 11.4 N 11 13 1022.1 - 0.0 - - - - - - -
21/07:00am 11.5 N 12 14 1022.1 - 0.0 - - - - - - -
21/06:30am 11.2 N 9 10 1022.0 - 0.0 - - - - - - -
21/06:00am 11.1 N 8 11 1022.0 - 0.0 - - - - - - -
21/05:30am 11.1 N 9 12 1022.0 - 0.0 - - - - - - -
21/05:00am 10.9 N 9 12 1022.0 - 0.0 - - - - - - -
21/04:30am 11.0 N 6 8 1022.1 - 0.0 - - - - - - -
21/04:00am 11.0 N 6 8 1022.0 - 0.0 - - - - - - -
21/03:30am 11.2 NNE 8 9 1022.2 - 0.0 - - - - - - -
21/03:00am 11.1 NNE 11 13 1022.0 - 0.0 - - - - - - -
21/02:30am 11.3 NNE 11 13 1022.0 - 0.0 - - - - - - -
21/02:00am 11.4 NNE 11 13 1022.0 - 0.0 - - - - - - -
21/01:30am 11.1 NNE 11 14 1022.2 - 0.0 - - - - - - -
21/01:00am 11.2 NNE 11 13 1022.5 - 0.0 - - - - - - -
21/12:30am 11.5 N 12 14 1022.9 - 0.0 - - - - - - -
21/12:00am 11.2 NNE 9 10 1023.2 - 0.0 - - - - - - -
 
Date/Time
CST
Temp

°C
Wind Pressure Rain
since 9am
mm
Weather Cloud Vis
km
Sea
Height
m
Swell
Dir
 
Speed
knots
Gust
knots
hPa Trend Height
m
Period
s
Dir
20/11:30pm 11.4 NNE 8 9 1023.4 - 0.0 - - - - - - -
20/11:00pm 11.4 NNE 8 9 1023.6 - 0.0 - - - - - - -
20/10:30pm 11.3 NNE 8 9 1023.8 - 0.0 - - - - - - -
20/10:00pm 11.3 NNE 6 8 1023.9 - 0.0 - - - - - - -
20/09:30pm 11.3 NNE 7 9 1024.0 - 0.0 - - - - - - -
20/09:00pm 11.4 NE 8 9 1024.1 - 0.0 - - - - - - -
20/08:30pm 11.5 NE 8 10 1024.1 - 0.0 - - - - - - -
20/08:00pm 11.6 NE 7 9 1024.0 - 0.0 - - - - - - -
20/07:30pm 11.2 NE 7 8 1024.1 - 0.0 - - - - - - -
20/07:00pm 11.0 NE 8 9 1024.4 - 0.0 - - - - - - -
20/06:30pm 11.1 NE 6 8 1024.3 - 0.0 - - - - - - -
20/06:00pm 10.7 N 5 7 1024.2 - 0.0 - - - - - - -
20/05:30pm 10.5 N 6 8 1024.3 - 0.0 - - - - - - -
20/05:00pm 10.8 N 10 12 1024.0 - 0.0 - - - - - - -
20/04:30pm 11.5 ENE 6 9 1024.0 - 0.0 - - - - - - -
20/04:00pm 11.4 NE 6 9 1024.0 - 0.0 - - - - - - -

Other Formats:

Comma delimited format used in spreadsheet applications
http://www.bom.gov.au/fwo/IDS60701/IDS60701.94822.axf

JavaScript Object Notation format (JSON) in row-major order
http://www.bom.gov.au/fwo/IDS60701/IDS60701.94822.json